Time;durP1;ratioP1;P1;durP2;ratioP2;P2;SDS_P1;SDS_P2;PMS_P1;PMS_P2;Temp;Humidity;BMP_temperature;BMP_pressure;BME280_temperature;BME280_humidity;BME280_pressure;Samples;Min_cycle;Max_cycle;Signal;HPM_P1;HPM_P2
2022/05/12 00:00:27;;;;;;;3.42;1.95;;;;;;;14.07;69.00;101184.63;4993664;28;20030;-91
2022/05/12 00:02:52;;;;;;;4.20;2.33;;;;;;;13.95;68.77;101187.06;4970500;28;20034;-92
2022/05/12 00:05:18;;;;;;;3.40;1.88;;;;;;;13.83;68.45;101187.78;4977236;28;20026;-92
2022/05/12 00:07:44;;;;;;;9.00;2.38;;;;;;;13.72;67.59;101190.25;4995236;28;20526;-91
2022/05/12 00:10:11;;;;;;;5.07;1.95;;;;;;;13.62;68.59;101203.28;4997470;28;20066;-91
2022/05/12 00:12:38;;;;;;;8.10;2.08;;;;;;;13.62;69.43;101202.44;5000072;28;20129;-90
2022/05/12 00:15:12;;;;;;;5.03;1.70;;;;;;;13.50;68.79;101195.97;4976790;28;20014;-90
2022/05/12 00:17:37;;;;;;;6.55;2.20;;;;;;;13.47;68.85;101203.31;4994612;28;20034;-91
2022/05/12 00:20:03;;;;;;;3.63;1.80;;;;;;;13.43;69.26;101207.97;4995215;28;20105;-90
2022/05/12 00:22:29;;;;;;;7.88;2.33;;;;;;;13.35;69.59;101210.22;4994548;28;20442;-90
2022/05/12 00:24:54;;;;;;;5.07;1.67;;;;;;;13.31;69.56;101209.53;4990315;28;20121;-90
2022/05/12 00:27:19;;;;;;;5.55;1.80;;;;;;;13.23;69.54;101217.13;4990399;28;20030;-91
2022/05/12 00:29:44;;;;;;;7.10;2.08;;;;;;;13.19;69.54;101219.06;4994295;28;20118;-92
2022/05/12 00:32:10;;;;;;;5.07;2.00;;;;;;;13.09;69.44;101211.66;4989190;28;20484;-90
2022/05/12 00:34:35;;;;;;;5.38;2.00;;;;;;;13.06;69.17;101223.38;4990579;28;20282;-92
2022/05/12 00:37:00;;;;;;;6.32;1.90;;;;;;;13.02;69.37;101223.63;4991734;28;20031;-91
2022/05/12 00:39:25;;;;;;;4.63;1.45;;;;;;;12.96;69.78;101224.84;4997234;28;20510;-90
2022/05/12 00:41:51;;;;;;;5.13;1.98;;;;;;;12.94;70.33;101238.25;4997879;28;20254;-90
2022/05/12 00:44:16;;;;;;;6.65;2.05;;;;;;;12.87;69.53;101233.34;4994784;28;20041;-90
2022/05/12 00:46:43;;;;;;;8.13;1.90;;;;;;;12.86;70.08;101244.97;4990452;28;20386;-90
2022/05/12 00:49:27;;;;;;;5.40;2.03;;;;;;;12.82;70.08;101238.06;4994112;28;20010;-90
2022/05/12 00:52:01;;;;;;;5.43;1.60;;;;;;;12.80;70.49;101242.66;4989757;28;20088;-90
2022/05/12 00:54:33;;;;;;;5.97;1.98;;;;;;;12.66;70.68;101238.00;4992138;28;20042;-90
2022/05/12 00:56:59;;;;;;;5.90;1.92;;;;;;;12.66;71.34;101241.53;4991326;28;20025;-90
2022/05/12 00:59:30;;;;;;;6.63;1.90;;;;;;;12.64;71.30;101248.78;4995492;28;20413;-89
2022/05/12 01:01:57;;;;;;;5.72;1.90;;;;;;;12.60;71.84;101246.38;4996122;28;20033;-89
2022/05/12 01:04:24;;;;;;;5.88;2.30;;;;;;;12.57;71.82;101247.38;4990910;28;20117;-89
2022/05/12 01:06:49;;;;;;;8.65;2.13;;;;;;;12.56;71.92;101252.81;4994909;28;20026;-90
2022/05/12 01:09:15;;;;;;;9.15;2.30;;;;;;;12.54;72.33;101265.38;4995183;28;20051;-90
2022/05/12 01:11:41;;;;;;;6.53;2.50;;;;;;;12.51;72.76;101258.41;4993989;28;20045;-90
2022/05/12 01:14:07;;;;;;;9.15;2.50;;;;;;;12.51;72.59;101262.88;4990748;28;20035;-91
2022/05/12 01:16:39;;;;;;;8.25;2.25;;;;;;;12.49;73.15;101264.75;4994559;28;20491;-90
2022/05/12 01:19:06;;;;;;;7.30;2.38;;;;;;;12.44;72.67;101260.50;4994139;28;20113;-90
2022/05/12 01:21:33;;;;;;;9.63;2.45;;;;;;;12.39;73.22;101265.22;4991325;28;20041;-90
2022/05/12 01:24:00;;;;;;;6.70;2.50;;;;;;;12.37;73.67;101272.47;4989952;28;20030;-90
2022/05/12 01:26:25;;;;;;;6.20;2.35;;;;;;;12.38;73.63;101278.66;4991290;28;20026;-90
2022/05/12 01:28:50;;;;;;;6.85;2.42;;;;;;;12.30;73.48;101278.19;4996384;28;20033;-91
2022/05/12 01:31:19;;;;;;;8.65;2.40;;;;;;;12.24;73.46;101282.03;4993745;28;20034;-91
2022/05/12 01:33:45;;;;;;;6.43;2.50;;;;;;;12.21;73.43;101279.53;4986934;28;20019;-90
2022/05/12 01:36:10;;;;;;;9.82;2.63;;;;;;;12.21;73.51;101285.72;4978906;28;20129;-90
2022/05/12 01:38:35;;;;;;;6.30;2.50;;;;;;;12.20;74.26;101304.47;4994109;28;20042;-91
2022/05/12 01:41:01;;;;;;;8.77;2.33;;;;;;;12.14;74.13;101294.97;4994056;28;20026;-90
2022/05/12 01:43:26;;;;;;;5.05;2.65;;;;;;;12.13;74.23;101305.75;4993032;28;20070;-90
2022/05/12 01:45:51;;;;;;;9.20;2.60;;;;;;;12.12;74.43;101307.53;4995000;28;20023;-89
2022/05/12 01:48:17;;;;;;;7.55;2.38;;;;;;;12.10;74.25;101304.06;4994340;28;20041;-90
2022/05/12 01:50:44;;;;;;;9.10;3.00;;;;;;;12.00;74.56;101300.16;4996433;28;20053;-90
2022/05/12 01:53:10;;;;;;;6.88;2.47;;;;;;;12.07;74.66;101306.03;4995022;28;20035;-89
2022/05/12 01:55:37;;;;;;;8.40;2.53;;;;;;;11.99;74.52;101295.72;4991751;28;20033;-88
2022/05/12 01:58:03;;;;;;;9.95;2.97;;;;;;;12.00;74.88;101309.94;4995284;28;20034;-90
2022/05/12 02:00:30;;;;;;;9.38;2.80;;;;;;;11.97;75.17;101302.97;4996376;28;20034;-89
2022/05/12 02:02:57;;;;;;;8.07;2.50;;;;;;;11.93;74.92;101315.59;4986540;28;20031;-89
2022/05/12 02:05:23;;;;;;;7.47;2.30;;;;;;;11.88;75.05;101319.41;4989321;28;20026;-89
2022/05/12 02:07:49;;;;;;;7.47;2.65;;;;;;;11.90;75.00;101326.38;4977035;28;20383;-89
2022/05/12 02:10:19;;;;;;;10.75;2.97;;;;;;;11.89;75.10;101326.47;4994083;28;20042;-90
2022/05/12 02:12:44;;;;;;;10.00;2.75;;;;;;;11.88;75.32;101333.63;4970783;28;20034;-89
2022/05/12 02:15:11;;;;;;;6.15;2.65;;;;;;;11.84;75.41;101340.03;4993125;28;20109;-89
2022/05/12 02:17:37;;;;;;;8.52;2.70;;;;;;;11.79;75.22;101336.72;4994471;28;20137;-90
2022/05/12 02:20:03;;;;;;;10.02;3.80;;;;;;;11.78;75.27;101342.09;4994080;28;20054;-90
2022/05/12 02:22:28;;;;;;;7.65;3.35;;;;;;;11.78;75.64;101358.94;4994560;28;20618;-91
2022/05/12 02:24:53;;;;;;;9.27;3.15;;;;;;;11.75;75.60;101344.94;4991753;28;20125;-90
2022/05/12 02:27:20;;;;;;;10.20;3.42;;;;;;;11.72;75.60;101345.94;4990340;28;20030;-90
2022/05/12 02:29:45;;;;;;;10.82;3.55;;;;;;;11.70;76.14;101347.78;4986876;28;20105;-90
2022/05/12 02:32:11;;;;;;;9.13;3.10;;;;;;;11.63;76.17;101347.22;4998535;28;20444;-89
2022/05/12 02:34:36;;;;;;;9.73;3.10;;;;;;;11.63;76.68;101346.38;4979377;28;20042;-90
2022/05/12 02:37:03;;;;;;;11.35;3.85;;;;;;;11.62;76.24;101356.19;4997060;28;20499;-91
2022/05/12 02:39:35;;;;;;;10.10;3.33;;;;;;;11.57;76.70;101355.50;4998510;28;20085;-89
2022/05/12 02:42:02;;;;;;;6.88;3.40;;;;;;;11.55;76.93;101364.53;4998832;28;20487;-90
2022/05/12 02:44:27;;;;;;;10.18;4.05;;;;;;;11.49;76.82;101352.31;4992356;28;20297;-89
2022/05/12 02:46:52;;;;;;;13.35;3.88;;;;;;;11.52;77.38;101362.84;4984205;28;20038;-89
2022/05/12 02:49:17;;;;;;;10.82;3.90;;;;;;;11.50;77.92;101370.06;4997399;28;20053;-89
2022/05/12 02:51:47;;;;;;;13.35;3.50;;;;;;;11.47;77.51;101364.88;4996053;28;20464;-89
2022/05/12 02:54:13;;;;;;;9.20;3.47;;;;;;;11.46;77.99;101379.16;4993218;28;20307;-90
2022/05/12 02:56:38;;;;;;;8.60;4.03;;;;;;;11.42;78.13;101365.09;4984992;28;20199;-90
2022/05/12 02:59:06;;;;;;;11.05;4.25;;;;;;;11.45;78.57;101372.94;4980697;28;20030;-91
2022/05/12 03:01:31;;;;;;;10.68;4.28;;;;;;;11.44;78.70;101370.34;4997453;28;20089;-89
2022/05/12 03:03:56;;;;;;;13.48;5.03;;;;;;;11.44;79.14;101368.53;4993817;28;20191;-91
2022/05/12 03:06:22;;;;;;;15.00;5.75;;;;;;;11.39;79.59;101372.34;4996232;28;20030;-90
2022/05/12 03:08:47;;;;;;;16.42;5.75;;;;;;;11.36;79.47;101377.81;4997019;28;20047;-90
2022/05/12 03:11:12;;;;;;;18.98;6.00;;;;;;;11.34;80.15;101380.56;4994045;28;20101;-90
2022/05/12 03:13:37;;;;;;;15.65;6.15;;;;;;;11.34;80.03;101391.22;4995640;28;20014;-89
2022/05/12 03:16:03;;;;;;;14.82;6.13;;;;;;;11.36;80.11;101386.69;4989089;28;20499;-90
2022/05/12 03:18:28;;;;;;;13.52;5.55;;;;;;;11.32;80.48;101384.22;4996160;28;20040;-89
2022/05/12 03:20:54;;;;;;;15.82;7.18;;;;;;;11.29;80.12;101382.59;4997058;28;20034;-90
2022/05/12 03:23:22;;;;;;;10.45;5.60;;;;;;;11.31;80.39;101396.69;4996394;28;20396;-89
2022/05/12 03:25:48;;;;;;;13.68;5.72;;;;;;;11.30;80.52;101394.97;4983016;28;20042;-90
2022/05/12 03:28:13;;;;;;;14.80;5.53;;;;;;;11.27;80.35;101392.44;4995122;28;20033;-88
2022/05/12 03:30:38;;;;;;;10.68;5.18;;;;;;;11.20;80.58;101389.19;4997230;28;20031;-89
2022/05/12 03:33:04;;;;;;;14.27;5.15;;;;;;;11.20;80.57;101390.97;5000855;28;20026;-88
2022/05/12 03:35:29;;;;;;;16.35;5.95;;;;;;;11.13;81.00;101393.06;5000805;28;20053;-90
2022/05/12 03:37:55;;;;;;;16.38;6.00;;;;;;;11.16;81.27;101405.34;4997337;28;20034;-91
2022/05/12 03:40:20;;;;;;;15.88;6.30;;;;;;;11.10;81.38;101411.81;4997164;28;20061;-89
2022/05/12 03:42:47;;;;;;;19.02;6.95;;;;;;;11.11;81.61;101413.56;4998275;28;20030;-91
2022/05/12 03:45:13;;;;;;;18.85;7.65;;;;;;;11.11;81.85;101418.03;4994303;28;20060;-88
2022/05/12 03:47:40;;;;;;;15.98;6.70;;;;;;;11.08;82.20;101423.50;4997884;28;20113;-92
2022/05/12 03:50:09;;;;;;;17.38;7.72;;;;;;;11.08;82.07;101436.81;4998716;28;20033;-89
2022/05/12 03:52:35;;;;;;;16.50;7.13;;;;;;;11.03;82.49;101436.13;4998136;28;20392;-90
2022/05/12 03:55:01;;;;;;;16.73;7.55;;;;;;;11.00;82.36;101426.50;4994604;28;20018;-90
2022/05/12 03:57:28;;;;;;;18.98;7.28;;;;;;;11.03;82.38;101430.81;4998140;28;20479;-91
2022/05/12 03:59:54;;;;;;;17.42;6.97;;;;;;;11.00;82.64;101438.94;4996924;28;20026;-91
2022/05/12 04:02:21;;;;;;;21.98;8.10;;;;;;;10.98;82.66;101447.00;4996031;28;20443;-90
2022/05/12 04:04:49;;;;;;;17.92;8.50;;;;;;;10.94;82.77;101448.06;4994531;28;20093;-89
2022/05/12 04:07:17;;;;;;;19.75;7.90;;;;;;;10.92;82.98;101440.13;4997627;28;20392;-90
2022/05/12 04:09:43;;;;;;;19.58;8.25;;;;;;;10.90;83.02;101441.97;4980146;28;20042;-89
2022/05/12 04:12:09;;;;;;;15.63;7.93;;;;;;;10.96;82.87;101440.88;4991549;28;20098;-89
2022/05/12 04:14:36;;;;;;;18.90;7.90;;;;;;;10.93;83.21;101452.53;4993317;28;20113;-89
2022/05/12 04:17:02;;;;;;;16.77;8.50;;;;;;;10.91;83.61;101461.50;4997789;28;20185;-90
2022/05/12 04:19:28;;;;;;;20.05;8.38;;;;;;;10.86;84.08;101460.81;4996881;28;20469;-88
2022/05/12 04:21:53;;;;;;;16.65;7.60;;;;;;;10.92;84.04;101460.59;4996195;28;20033;-89
2022/05/12 04:24:19;;;;;;;19.83;8.07;;;;;;;10.90;83.65;101457.09;4991613;28;20126;-89
2022/05/12 04:26:46;;;;;;;26.02;9.00;;;;;;;10.91;84.19;101465.06;4996926;28;20022;-88
2022/05/12 04:29:11;;;;;;;20.60;8.27;;;;;;;10.90;84.09;101470.41;4995879;28;20026;-89
2022/05/12 04:31:36;;;;;;;23.38;9.30;;;;;;;10.90;83.94;101470.41;4996560;28;20030;-89
2022/05/12 04:36:46;;;;;;;;;;;;;;;11.04;81.50;101485.84;4992015;28;20447;-87
2022/05/12 04:39:11;;;;;;;25.77;10.00;;;;;;;10.97;83.68;101486.09;4996121;28;19914;-89
2022/05/12 04:41:37;;;;;;;20.60;10.20;;;;;;;10.94;84.71;101477.34;4980118;28;20312;-90
2022/05/12 04:44:05;;;;;;;23.83;10.68;;;;;;;11.08;84.97;101493.63;4992343;28;20030;-89
2022/05/12 04:46:30;;;;;;;25.67;11.40;;;;;;;11.10;85.25;101496.22;4992271;28;20451;-87
2022/05/12 04:48:56;;;;;;;30.83;12.32;;;;;;;11.13;85.34;101498.75;4994950;28;20027;-90
2022/05/12 04:51:22;;;;;;;27.83;12.15;;;;;;;11.12;85.52;101494.34;4995144;28;20049;-88
2022/05/12 04:53:48;;;;;;;23.02;11.38;;;;;;;11.17;85.62;101497.69;4990497;28;20033;-89
2022/05/12 04:56:14;;;;;;;21.70;12.88;;;;;;;11.22;85.68;101503.69;4993771;28;20105;-88
2022/05/12 04:58:39;;;;;;;28.55;13.23;;;;;;;11.27;86.04;101500.81;4995469;28;20038;-91
2022/05/12 05:01:05;;;;;;;35.63;14.88;;;;;;;11.27;85.82;101498.16;4995409;28;20031;-90
2022/05/12 05:03:30;;;;;;;23.15;13.20;;;;;;;11.34;85.94;101496.97;4994756;28;20414;-94
2022/05/12 05:05:56;;;;;;;24.75;13.15;;;;;;;11.37;85.96;101505.69;4978981;28;20061;-87
2022/05/12 05:08:22;;;;;;;30.58;15.25;;;;;;;11.37;86.45;101513.69;4995446;28;20520;-89
2022/05/12 05:10:49;;;;;;;31.52;14.88;;;;;;;11.45;86.44;101508.91;4993080;28;20027;-92
2022/05/12 05:13:15;;;;;;;25.90;15.43;;;;;;;11.49;86.17;101522.94;4992051;28;20031;-92
2022/05/12 05:15:40;;;;;;;27.67;15.20;;;;;;;11.51;86.21;101512.22;4999989;28;20026;-89
2022/05/12 05:18:10;;;;;;;28.63;16.02;;;;;;;11.56;87.12;101531.53;4998214;28;20046;-89
2022/05/12 05:20:35;;;;;;;31.13;15.27;;;;;;;11.64;86.72;101524.06;4992340;28;20089;-91
2022/05/12 05:23:00;;;;;;;30.40;15.63;;;;;;;11.74;86.45;101536.03;4988435;28;20267;-89
2022/05/12 05:25:26;;;;;;;27.48;15.90;;;;;;;11.76;85.89;101533.34;4991997;28;20041;-89
2022/05/12 05:27:54;;;;;;;30.73;16.63;;;;;;;11.84;86.11;101537.41;4993615;28;20034;-89
2022/05/12 05:30:22;;;;;;;28.52;16.02;;;;;;;11.92;85.89;101545.94;4978108;28;20022;-88
2022/05/12 05:32:48;;;;;;;33.50;16.52;;;;;;;12.05;85.69;101542.72;4990910;28;20026;-90
2022/05/12 05:35:14;;;;;;;29.85;16.75;;;;;;;12.12;84.66;101541.47;4991484;28;20258;-90
2022/05/12 05:37:41;;;;;;;32.72;17.23;;;;;;;12.23;85.20;101541.84;4993825;28;20026;-88
2022/05/12 05:40:09;;;;;;;33.53;17.02;;;;;;;12.36;84.19;101553.69;4994322;28;20046;-90
2022/05/12 05:42:35;;;;;;;31.15;17.13;;;;;;;12.42;84.30;101557.88;4993087;28;20022;-90
2022/05/12 05:45:08;;;;;;;33.97;18.15;;;;;;;12.51;84.30;101569.94;4991485;28;20089;-90
2022/05/12 05:47:34;;;;;;;34.17;18.07;;;;;;;12.65;83.39;101572.81;4956647;28;20070;-89
2022/05/12 05:50:00;;;;;;;32.15;18.17;;;;;;;12.76;83.75;101577.63;4990440;28;20404;-88
2022/05/12 05:55:09;;;;;;;28.95;17.33;;;;;;;13.09;81.19;101586.69;4994904;28;20119;-90
2022/05/12 05:57:36;;;;;;;38.10;19.23;;;;;;;13.22;81.75;101578.91;4983986;28;20340;-90
2022/05/12 06:00:05;;;;;;;37.22;18.65;;;;;;;13.41;80.45;101595.78;4993185;28;20543;-93
2022/05/12 06:02:31;;;;;;;34.03;18.98;;;;;;;13.43;80.66;101593.91;4994182;28;20618;-88
2022/05/12 06:04:56;;;;;;;32.95;19.25;;;;;;;13.56;80.81;101598.63;4991834;28;20049;-86
2022/05/12 06:07:21;;;;;;;35.60;19.65;;;;;;;13.72;80.16;101599.56;4957306;28;20106;-88
2022/05/12 06:09:47;;;;;;;30.80;19.60;;;;;;;13.89;78.21;101604.03;4991913;28;20053;-87
2022/05/12 06:12:12;;;;;;;32.45;19.88;;;;;;;13.90;79.35;101609.28;4983300;28;20022;-87
2022/05/12 06:14:38;;;;;;;36.20;20.15;;;;;;;13.95;78.85;101604.56;4998428;28;20031;-90
2022/05/12 06:17:04;;;;;;;33.25;19.92;;;;;;;14.08;78.46;101611.94;4993387;28;20030;-93
2022/05/12 06:19:30;;;;;;;30.33;19.58;;;;;;;14.18;78.09;101608.69;4997548;28;20484;-90
2022/05/12 06:21:55;;;;;;;35.83;21.10;;;;;;;14.34;77.46;101616.78;4994653;28;20470;-86
2022/05/12 06:24:20;;;;;;;33.45;19.77;;;;;;;14.55;76.17;101614.78;4986021;28;20042;-87
2022/05/12 06:26:46;;;;;;;32.60;19.35;;;;;;;14.59;75.70;101615.44;4991032;28;20038;-86
2022/05/12 06:29:11;;;;;;;35.15;20.05;;;;;;;14.67;76.01;101624.81;4991365;28;20105;-87
2022/05/12 06:31:36;;;;;;;34.13;19.38;;;;;;;14.64;75.04;101626.78;4990772;28;20034;-94
2022/05/12 06:34:02;;;;;;;32.03;19.83;;;;;;;14.59;74.76;101628.84;4992353;28;20034;-91
2022/05/12 06:36:29;;;;;;;32.92;20.38;;;;;;;14.60;74.95;101625.22;4996057;28;20047;-93
2022/05/12 06:38:54;;;;;;;30.38;20.20;;;;;;;14.69;74.82;101635.44;4997250;28;20011;-92
2022/05/12 06:41:20;;;;;;;31.95;20.38;;;;;;;14.78;74.37;101637.59;4996749;28;20038;-94
2022/05/12 06:43:46;;;;;;;28.42;19.00;;;;;;;14.80;72.42;101642.88;4991256;28;20025;-94
2022/05/12 06:46:15;;;;;;;27.15;17.92;;;;;;;14.67;71.87;101637.31;4990330;28;20089;-94
2022/05/12 06:48:42;;;;;;;29.40;18.95;;;;;;;14.80;72.00;101646.44;4994498;28;20046;-93
2022/05/12 06:51:07;;;;;;;31.23;19.50;;;;;;;15.07;71.32;101643.13;4996098;28;20034;-94
2022/05/12 06:53:33;;;;;;;30.00;18.85;;;;;;;15.32;69.40;101647.94;4994648;28;20041;-95
2022/05/12 06:55:58;;;;;;;32.75;20.35;;;;;;;15.28;69.34;101639.22;4999173;28;20034;-94
2022/05/12 06:58:23;;;;;;;28.17;19.02;;;;;;;15.41;69.69;101656.31;5004292;28;20034;-92
2022/05/12 07:00:48;;;;;;;26.70;18.38;;;;;;;15.50;68.62;101659.41;4981817;28;20011;-94
2022/05/12 07:03:14;;;;;;;30.48;19.80;;;;;;;15.77;67.31;101660.53;4994986;28;20034;-95
2022/05/12 07:05:40;;;;;;;26.95;19.88;;;;;;;16.00;65.71;101655.56;4993443;28;20429;-94
2022/05/12 07:08:06;;;;;;;26.98;18.42;;;;;;;16.37;65.42;101657.72;4991622;28;20034;-94
2022/05/12 07:10:32;;;;;;;22.58;15.20;;;;;;;16.70;62.99;101664.63;4995909;28;20039;-95
2022/05/12 07:12:58;;;;;;;23.65;16.17;;;;;;;17.13;61.58;101656.50;4993424;28;20037;-94
2022/05/12 07:15:27;;;;;;;20.55;15.93;;;;;;;17.36;59.99;101655.88;4978517;28;20030;-95
2022/05/12 07:17:54;;;;;;;24.40;16.27;;;;;;;17.50;58.96;101664.84;4999388;28;20073;-95
2022/05/12 07:28:33;;;;;;;24.05;17.38;;;;;;;18.20;54.79;101664.59;4998682;28;20033;-96
2022/05/12 07:31:02;;;;;;;25.25;18.48;;;;;;;18.35;56.65;101675.16;4998754;28;20015;-96
2022/05/12 07:33:29;;;;;;;23.95;18.52;;;;;;;18.47;56.72;101676.09;4997511;28;20061;-94
2022/05/12 07:35:54;;;;;;;25.92;19.20;;;;;;;18.51;55.39;101674.91;4996249;28;20535;-94
2022/05/12 07:38:20;;;;;;;24.20;19.27;;;;;;;18.06;55.48;101679.03;4996581;28;20042;-95
2022/05/12 07:40:45;;;;;;;22.75;19.38;;;;;;;17.43;57.07;101678.72;4996412;28;20034;-95
2022/05/12 07:43:10;;;;;;;25.70;20.00;;;;;;;16.88;58.30;101697.56;4995506;28;20038;-94
2022/05/12 07:45:36;;;;;;;25.80;19.38;;;;;;;17.14;57.80;101677.09;4997148;28;20037;-92
2022/05/12 07:48:02;;;;;;;25.50;20.02;;;;;;;18.17;54.63;101688.06;4973807;28;20026;-93
2022/05/12 07:50:28;;;;;;;27.95;18.95;;;;;;;19.28;52.09;101694.53;4990745;28;20030;-93
2022/05/12 07:52:54;;;;;;;30.02;19.98;;;;;;;19.90;50.03;101688.09;4987513;28;20353;-95
2022/05/12 07:55:19;;;;;;;25.65;18.95;;;;;;;19.73;49.56;101686.69;4994636;28;20034;-95
2022/05/12 07:57:45;;;;;;;24.77;18.23;;;;;;;19.25;50.60;101700.16;4995206;28;20088;-93
2022/05/12 08:00:10;;;;;;;23.98;18.80;;;;;;;19.28;50.94;101699.06;4995259;28;20081;-94
2022/05/12 08:02:36;;;;;;;23.55;18.65;;;;;;;19.12;49.87;101689.41;4991802;28;20114;-94
2022/05/12 08:05:04;;;;;;;22.10;18.10;;;;;;;19.17;50.31;101708.81;4992675;28;20046;-94
2022/05/12 08:07:30;;;;;;;24.23;16.30;;;;;;;20.06;48.45;101712.09;4991219;28;20045;-95
2022/05/12 08:09:57;;;;;;;18.92;13.18;;;;;;;20.52;45.41;101714.78;4992821;28;20117;-95
2022/05/12 08:12:23;;;;;;;19.42;15.55;;;;;;;20.35;45.02;101713.38;4990431;28;20396;-94
2022/05/12 08:14:48;;;;;;;19.23;15.98;;;;;;;20.61;44.65;101716.78;4991762;28;20034;-94
2022/05/12 08:17:14;;;;;;;20.15;14.38;;;;;;;21.30;43.13;101716.59;4994445;28;20033;-95
2022/05/12 08:19:39;;;;;;;18.52;13.85;;;;;;;22.13;41.28;101715.97;4995339;28;20026;-95
2022/05/12 08:22:04;;;;;;;20.23;15.52;;;;;;;22.62;38.82;101721.72;4993306;28;20052;-94
2022/05/12 08:24:29;;;;;;;19.55;16.35;;;;;;;23.12;37.83;101716.38;4992009;28;20044;-94
2022/05/12 08:26:55;;;;;;;18.90;16.83;;;;;;;23.75;37.86;101710.63;4991027;28;20026;-92
2022/05/12 08:29:20;;;;;;;22.80;16.58;;;;;;;24.07;35.65;101713.88;4991242;28;20038;-91
2022/05/12 08:31:45;;;;;;;19.55;16.65;;;;;;;24.29;35.95;101720.03;4994866;28;20038;-90
2022/05/12 08:34:10;;;;;;;18.52;15.45;;;;;;;24.52;34.98;101713.25;5001898;28;20038;-88
2022/05/12 08:36:36;;;;;;;19.85;16.35;;;;;;;25.23;34.87;101711.84;5000037;28;20105;-96
2022/05/12 08:39:02;;;;;;;16.25;13.13;;;;;;;25.62;32.68;101715.16;4995460;28;20094;-88
2022/05/12 08:41:37;;;;;;;16.00;12.88;;;;;;;25.41;32.90;101722.75;4991807;28;20058;-86
2022/05/12 08:44:13;;;;;;;16.33;13.90;;;;;;;25.60;33.93;101722.63;4986432;28;20049;-90
2022/05/12 08:46:43;;;;;;;18.20;14.85;;;;;;;26.02;31.40;101727.50;4996479;28;20121;-89
2022/05/12 08:49:31;;;;;;;17.25;14.20;;;;;;;26.52;32.53;101716.81;4992552;28;20034;-92
2022/05/12 08:52:07;;;;;;;17.20;13.55;;;;;;;26.96;29.23;101726.75;4987466;28;20605;-87
2022/05/12 08:54:34;;;;;;;16.23;13.15;;;;;;;27.22;29.39;101713.94;4986218;28;20472;-84
2022/05/12 08:57:04;;;;;;;15.05;13.45;;;;;;;27.07;28.34;101727.31;4988258;28;20033;-87
2022/05/12 08:59:29;;;;;;;15.70;13.98;;;;;;;25.04;30.45;101724.53;4986948;28;20102;-87
2022/05/12 09:02:07;;;;;;;14.68;11.68;;;;;;;25.28;31.26;101721.25;4987885;28;20125;-86
2022/05/12 09:04:59;;;;;;;13.57;10.90;;;;;;;26.71;30.17;101723.03;4989363;28;20081;-86
2022/05/12 09:07:46;;;;;;;13.60;11.48;;;;;;;26.91;29.54;101721.78;4983314;28;20026;-84
2022/05/12 09:10:21;;;;;;;16.65;13.20;;;;;;;27.11;29.11;101733.34;4991886;28;20065;-87
2022/05/12 09:12:51;;;;;;;14.60;13.10;;;;;;;27.52;28.69;101733.47;4971069;28;20487;-86
2022/05/12 09:15:27;;;;;;;18.10;13.15;;;;;;;28.17;27.65;101730.81;4986701;28;20034;-88
2022/05/12 09:18:11;;;;;;;16.45;14.80;;;;;;;28.89;27.70;101736.38;4990218;28;20080;-88
2022/05/12 09:20:37;;;;;;;15.77;14.07;;;;;;;29.12;24.36;101738.34;4989980;28;20481;-89
2022/05/12 09:23:04;;;;;;;15.63;12.85;;;;;;;29.32;25.14;101747.00;4989417;28;20030;-88
2022/05/12 09:25:47;;;;;;;15.85;14.15;;;;;;;27.71;26.64;101737.78;4970825;28;20058;-88
2022/05/12 09:28:29;;;;;;;;;;;;;;;26.47;27.74;101737.44;4985471;28;20034;-88
2022/05/12 09:31:02;;;;;;;12.02;10.18;;;;;;;24.95;28.91;101747.19;4977857;28;20015;-89
2022/05/12 09:33:34;;;;;;;12.60;9.32;;;;;;;25.23;29.53;101737.22;4977528;28;20121;-87
2022/05/12 09:36:08;;;;;;;10.68;8.40;;;;;;;26.92;26.36;101728.97;4973892;28;20041;-88
2022/05/12 09:38:43;;;;;;;9.82;7.75;;;;;;;28.00;25.53;101712.69;4995442;28;20041;-87
2022/05/12 09:41:31;;;;;;;11.55;7.95;;;;;;;29.32;23.52;101727.81;4986805;28;20053;-86
2022/05/12 09:43:57;;;;;;;13.98;9.35;;;;;;;30.36;22.31;101723.66;4980583;28;20463;-85
2022/05/12 09:46:29;;;;;;;11.05;8.23;;;;;;;31.38;22.10;101724.69;4985631;28;20038;-85
2022/05/12 09:49:14;;;;;;;12.32;8.02;;;;;;;31.90;20.65;101718.09;4986228;28;20037;-85
2022/05/12 09:51:39;;;;;;;9.82;7.72;;;;;;;31.96;20.60;101716.44;4980462;28;20080;-85
2022/05/12 09:54:26;;;;;;;11.18;7.57;;;;;;;32.38;22.11;101725.66;4969664;28;20034;-87
2022/05/12 09:57:12;;;;;;;9.25;6.97;;;;;;;32.16;22.17;101709.19;4986816;28;20069;-85
2022/05/12 09:59:40;;;;;;;9.73;8.55;;;;;;;29.84;21.83;101722.50;4987379;28;20030;-85
2022/05/12 10:07:53;;;;;;;9.77;7.80;;;;;;;27.76;24.60;101727.25;4986370;28;20065;-85
2022/05/12 10:08:22;;;;;;;7.78;5.43;;;;;;;28.60;23.35;101719.69;4977689;28;20140;-86
2022/05/12 10:10:53;;;;;;;8.05;5.70;;;;;;;29.18;23.16;101716.59;4982879;28;20046;-86
2022/05/12 10:13:27;;;;;;;5.63;4.68;;;;;;;28.15;23.06;101713.72;4989941;28;20026;-86
2022/05/12 10:15:55;;;;;;;7.30;4.97;;;;;;;27.66;22.84;101716.41;4988885;28;20030;-86
2022/05/12 10:18:40;;;;;;;6.35;4.60;;;;;;;28.91;22.47;101717.00;4987370;28;20026;-87
2022/05/12 10:21:21;;;;;;;7.13;4.70;;;;;;;29.95;22.27;101715.75;4985967;28;20042;-87
2022/05/12 10:24:00;;;;;;;7.10;4.85;;;;;;;28.87;22.62;101729.34;4987035;28;20041;-87
2022/05/12 10:26:38;;;;;;;9.20;6.38;;;;;;;27.68;24.96;101719.84;4985487;28;20672;-87
2022/05/12 10:29:41;;;;;;;6.28;5.65;;;;;;;29.70;22.97;101718.69;4985383;28;20529;-87
2022/05/12 10:32:34;;;;;;;8.88;6.07;;;;;;;29.34;23.23;101725.72;4984784;28;20041;-86
2022/05/12 10:35:22;;;;;;;7.40;5.70;;;;;;;29.18;23.26;101730.28;4967952;28;20066;-86
2022/05/12 10:38:14;;;;;;;7.38;4.82;;;;;;;28.97;22.70;101721.78;4979412;28;20109;-87
2022/05/12 10:40:47;;;;;;;7.65;5.25;;;;;;;29.88;21.49;101721.09;4984715;28;20081;-86
2022/05/12 10:43:22;;;;;;;;;;;;;;;31.03;22.65;101720.84;4987909;28;20106;-87
2022/05/12 10:45:58;;;;;;;5.40;4.60;;;;;;;29.09;21.88;101725.00;4969582;28;19928;-86
2022/05/12 10:48:42;;;;;;;5.68;4.28;;;;;;;27.42;23.96;101719.09;4985160;28;20069;-86
2022/05/12 10:51:26;;;;;;;5.55;4.55;;;;;;;25.94;26.23;101711.91;4995975;28;20061;-88
2022/05/12 10:54:10;;;;;;;6.53;5.78;;;;;;;24.34;27.24;101717.72;4997476;28;20057;-88
2022/05/12 10:57:03;;;;;;;6.28;5.57;;;;;;;23.86;28.40;101713.19;4996537;28;20026;-85
2022/05/12 10:59:51;;;;;;;7.15;5.70;;;;;;;22.95;29.45;101725.16;4993082;28;20114;-86
2022/05/12 11:02:16;;;;;;;7.47;6.72;;;;;;;22.44;30.86;101723.31;4995998;28;20046;-86
2022/05/12 11:04:51;;;;;;;9.27;6.50;;;;;;;23.08;30.63;101728.50;4994653;28;20049;-85
2022/05/12 11:07:42;;;;;;;7.18;5.22;;;;;;;25.44;26.72;101706.09;4995408;28;20285;-86
2022/05/12 11:10:45;;;;;;;6.20;4.22;;;;;;;27.40;24.46;101702.00;4988985;28;20129;-87
2022/05/12 11:13:18;;;;;;;7.82;4.22;;;;;;;28.94;22.75;101700.22;4989130;28;20058;-86
2022/05/12 11:15:51;;;;;;;6.45;4.55;;;;;;;30.09;20.87;101703.94;4991947;28;20022;-87
2022/05/12 11:18:27;;;;;;;5.55;3.88;;;;;;;29.84;21.44;101710.69;4988382;28;20041;-87
2022/05/12 11:21:04;;;;;;;7.18;3.90;;;;;;;28.96;22.35;101706.34;4987798;28;20039;-85
2022/05/12 11:23:56;;;;;;;8.18;3.55;;;;;;;29.47;21.50;101715.03;4979286;28;20085;-87
2022/05/12 11:26:52;;;;;;;6.38;3.45;;;;;;;30.38;21.50;101699.59;4996637;28;20037;-85
2022/05/12 11:29:43;;;;;;;4.90;3.00;;;;;;;31.34;20.41;101695.88;4984460;28;20488;-86
2022/05/12 11:32:28;;;;;;;5.53;2.65;;;;;;;31.50;19.78;101692.03;4992415;28;20107;-86
2022/05/12 11:35:02;;;;;;;5.93;2.88;;;;;;;31.16;18.69;101696.25;4985676;28;20030;-86
2022/05/12 11:37:30;;;;;;;4.68;2.60;;;;;;;28.84;20.11;101707.78;4989231;28;20038;-86
2022/05/12 11:40:01;;;;;;;4.25;2.20;;;;;;;27.08;22.14;101701.69;4986299;28;20034;-85
2022/05/12 11:42:28;;;;;;;4.53;1.95;;;;;;;26.65;23.06;101697.25;4982060;28;20038;-88